Tuesday, June 28, 2016
22:19 UTC
  |  Log In   |  Register Free
Airport Search:

Powell Municipal Airport
(KPOY)

Powell Municipal Airport Diagram
No Airport Diagram Available

FAA data valid effective May 26 2016 - Jul 21 2016 (unless otherwise noted).

 
 
 
 
 
 
 
 
 
 
 
 
 
 
Current Aviation Weather for KPOY

Weather Summary


The most recent METAR observation for POY was updated at: 12:55 UTC
METAR for KPOY is not available. Closest METAR is for KU68
KPOY  (most recent observation was updatred at 28:21 UTC)
282155Z AUTO 35012G21KT 10SM CLR 32/01 A3014 RMK AO2

KU68  (15.0 nm SW)   (most recent observation was updated at 28:21 UTC)
282155Z AUTO 27009KT 10SM CLR 33/01 A3009 RMK AO2

KCOD  (23.1 nm NE)   (most recent observation was updated at 28:22 UTC)
282215Z AUTO 34006KT 10SM CLR 27/07 A3016 RMK AO1

TAF for KPOY is not available.
KCOD  (23.1 nm NE)   (most recent observation was updatred at 28:17 UTC)
281723Z 2818/2918 01007KT P6SM VCSH SCT080 BKN150 FM282100 02011KT P6SM VCTS SCT080CB BKN120 FM290100 33005KT P6SM VCSH BKN110 FM290600 21006KT P6SM SCT110 FM291600 03009KT P6SM VCSH SCT090 BKN150 AMD LTD TO CLD VIS AND WIND


GlobalAir.com is loading additional information.
 Current Weather at POY
86.0 F° (30.0 C°)

North winds at 0.0 mph
Pressure:
30.17 in
Humidity:
14%
Wind:
North at 0.0 mph
Dew Point:
32.0 F° (0.0 C°)
Visibility:
10.00 mi
POY NOAA Radar




Find All Airport Services Find A Hotel Find A Rental Car Find A Golf Course Find A Restaurant $100 Hamburger



Airport Weather Forecast for KPOY

Translated METAR for KPOY (2155 UTC)
METAR:
KPOY 282155Z AUTO 35012G21KT 10SM CLR 32/01 A3014 RMK AO2
Conditions at:
KPOY (Powell Muni, WY) observed 2155 UTC 28 June 2016
Temperature:
32°C (89.6°F)
Dewpoint:
1°C (33.8°F) [RH = 13.8]
Pressure:
30.14 inches Hg (1020.7 mb)
Winds:
from the N (350 degrees) at 13.8 mph (12 knots: 6.2 m/s)
gusting to 24.2 mph (21 knots: 10.8 m/s)
Visibility:
10 mile(s)
Ceiling:
at least 12,000 feet AGL
Clouds:
Clear below 12,000 feet AGL
Remarks:
site is un-manned
site is automated and HAS a precipitation sensor

Translated TAF for KCOD (Yellowstone Rgnl, WY) (1723 UTC)
TAF text:
KCOD 281723Z 2818/2918 01007KT P6SM VCSH SCT080 BKN150
Forecast period:
Tuesday Jun 28 2016 18:00 UTC - Wednesday Jun 29 2016 18:00 UTC
Forecast type:
FROM: standard forecast or significant change
Winds:
from the N (010 degrees) at 8.1 mph (7 knots: 3.6 m/s)
Visibility:
6 or more mile(s) (9.7+ km)
Ceiling:
15,000 feet AGL
Clouds:
Scattered Clouds at 8,000 feet AGL
Broken Cloud Cover at 15,000 feet AGL
Weather:
Moderate In Vicinity Shower(s)
TAF text:
FM282100 02011KT P6SM VCTS SCT080CB BKN120
Forecast period:
Tuesday Jun 28 2016 21:00 UTC - Wednesday Jun 29 2016 01:00 UTC
Forecast type:
FROM: standard forecast or significant change
Winds:
from the NNE (020 degrees) at 12.7 mph (11 knots: 5.7 m/s)
Visibility:
6 or more mile(s) (9.7+ km)
Ceiling:
12,000 feet AGL
Clouds:
Broken Cloud Cover at 12,000 feet AGL
Weather:
Moderate In Vicinity Thunderstorm
TAF text:
FM290100 33005KT P6SM VCSH BKN110
Forecast period:
Wednesday Jun 29 2016 01:00 UTC - Wednesday Jun 29 2016 06:00 UTC
Forecast type:
FROM: standard forecast or significant change
Winds:
from the NNW (330 degrees) at 5.8 mph (5 knots: 2.6 m/s)
Visibility:
6 or more mile(s) (9.7+ km)
Ceiling:
11,000 feet AGL
Clouds:
Broken Cloud Cover at 11,000 feet AGL
Weather:
Moderate In Vicinity Shower(s)
TAF text:
FM290600 21006KT P6SM SCT110
Forecast period:
Wednesday Jun 29 2016 06:00 UTC - Wednesday Jun 29 2016 16:00 UTC
Forecast type:
FROM: standard forecast or significant change
Winds:
from the SSW (210 degrees) at 6.9 mph (6 knots: 3.1 m/s)
Visibility:
6 or more mile(s) (9.7+ km)
Ceiling:
at least 12,000 feet AGL
Clouds:
Scattered Clouds at 11,000 feet AGL
Weather:
no significant weather observed at this time
TAF text:
FM291600 03009KT P6SM VCSH SCT090 BKN150 LTD TO CLD VIS AND WIND
Forecast period:
Wednesday Jun 29 2016 16:00 UTC - Wednesday Jun 29 2016 18:00 UTC
Forecast type:
FROM: standard forecast or significant change
Winds:
from the NNE (030 degrees) at 10.4 mph (9 knots: 4.6 m/s)
Visibility:
6 or more mile(s) (9.7+ km)
Ceiling:
15,000 feet AGL
Clouds:
Scattered Clouds at 9,000 feet AGL
Broken Cloud Cover at 15,000 feet AGL
Weather:
Moderate In Vicinity Shower(s)
FBO's on the Field
FBO Company Facility Photos Services Transportation Aviation Fuel Prices: Prices include tax
Catering Weather Repair Courtesy Rental Type 100LL JetA JetA+ MOGAS 8087
 
City of Powell

This FBO has not yet been rated
FS:Independent
Last Updated: Jun-15
Login to update fuel prices
SS:
Contact City of PowellMore FBO Information
 
Add another FBO Facility Photos Catering Weather Repair Courtesy Rental Type 100LL JetA JetA+ MOGAS 8087
Services Transportation Aviation Fuel Prices: Prices include tax


model-print
model-print
model-print
model-print